Time;durP1;ratioP1;P1;durP2;ratioP2;P2;SDS_P1;SDS_P2;PMS_P1;PMS_P2;Temp;Humidity;BMP_temperature;BMP_pressure;BME280_temperature;BME280_humidity;BME280_pressure;Samples;Min_cycle;Max_cycle;Signal;HPM_P1;HPM_P2
2022/04/16 00:00:15;;;;;;;16.17;12.57;;;;;;;14.61;57.82;99372.75;5055137;28;20196;-66
2022/04/16 00:02:42;;;;;;;16.93;12.00;;;;;;;14.61;58.21;99389.59;5054793;28;20200;-66
2022/04/16 00:05:09;;;;;;;17.37;12.40;;;;;;;14.59;58.36;99385.53;5054667;28;20197;-66
2022/04/16 00:07:38;;;;;;;13.30;11.93;;;;;;;14.62;58.77;99396.59;5037073;28;20724;-66
2022/04/16 00:10:05;;;;;;;17.70;12.90;;;;;;;14.61;58.30;99394.94;5054661;28;20189;-66
2022/04/16 00:12:33;;;;;;;18.50;11.87;;;;;;;14.61;59.23;99394.94;5054964;28;20196;-66
2022/04/16 00:15:00;;;;;;;16.77;13.37;;;;;;;14.56;58.77;99397.50;5055029;28;20772;-66
2022/04/16 00:17:28;;;;;;;23.20;13.47;;;;;;;14.55;59.52;99406.53;5054142;28;20352;-65
2022/04/16 00:19:55;;;;;;;18.00;13.17;;;;;;;14.51;58.89;99400.03;5055270;28;20200;-66
2022/04/16 00:22:23;;;;;;;17.60;13.43;;;;;;;14.38;59.41;99402.81;5054904;28;20661;-66
2022/04/16 00:24:50;;;;;;;18.73;12.27;;;;;;;14.35;59.13;99416.66;5054352;28;20665;-66
2022/04/16 00:27:17;;;;;;;15.03;12.17;;;;;;;14.31;59.61;99415.47;5054359;28;20819;-66
2022/04/16 00:29:44;;;;;;;17.57;12.67;;;;;;;14.31;60.07;99422.66;5036599;28;20262;-66
2022/04/16 00:32:11;;;;;;;22.00;13.47;;;;;;;14.25;60.32;99416.31;5054563;28;20260;-66
2022/04/16 00:34:39;;;;;;;16.17;12.23;;;;;;;14.22;60.00;99424.78;5036605;28;20201;-66
2022/04/16 00:37:06;;;;;;;19.43;11.43;;;;;;;14.09;60.24;99406.19;5055201;28;20192;-66
2022/04/16 00:39:34;;;;;;;12.70;11.07;;;;;;;14.10;60.13;99429.16;5054194;28;20196;-66
2022/04/16 00:42:01;;;;;;;15.67;11.43;;;;;;;13.98;60.18;99427.47;5020406;28;20309;-66
2022/04/16 00:44:28;;;;;;;12.60;10.70;;;;;;;13.95;60.59;99426.03;5054247;28;20755;-65
2022/04/16 00:46:55;;;;;;;13.57;10.33;;;;;;;13.91;60.41;99435.53;5054544;28;20188;-65
2022/04/16 00:49:22;;;;;;;12.20;10.50;;;;;;;13.91;60.50;99424.84;5054482;28;20207;-66
2022/04/16 00:51:52;;;;;;;11.83;9.23;;;;;;;13.93;59.99;99428.09;5035312;28;20227;-65
2022/04/16 00:54:19;;;;;;;15.00;9.40;;;;;;;13.92;59.73;99433.66;5053987;28;20197;-66
2022/04/16 00:56:47;;;;;;;15.03;10.50;;;;;;;13.95;59.32;99434.06;5053958;28;20193;-66
2022/04/16 00:59:14;;;;;;;10.27;9.43;;;;;;;13.93;59.71;99436.13;5053965;28;20214;-66
2022/04/16 01:01:40;;;;;;;16.23;9.60;;;;;;;13.95;59.78;99436.72;5053887;28;20192;-65
2022/04/16 01:04:07;;;;;;;10.40;9.40;;;;;;;13.91;59.37;99430.19;5035965;28;20374;-66
2022/04/16 01:06:38;;;;;;;12.23;9.20;;;;;;;13.90;59.12;99443.75;5054136;28;20197;-65
2022/04/16 01:09:08;;;;;;;12.13;9.20;;;;;;;13.81;60.04;99437.06;5036379;28;20220;-65
2022/04/16 01:11:35;;;;;;;9.67;8.83;;;;;;;13.76;60.04;99437.69;5036275;28;20207;-65
2022/04/16 01:14:03;;;;;;;9.97;8.37;;;;;;;13.70;60.20;99443.91;5053864;28;20208;-66
2022/04/16 01:16:31;;;;;;;8.80;8.10;;;;;;;13.63;60.54;99437.81;5053533;28;20177;-65
2022/04/16 01:18:58;;;;;;;9.70;8.70;;;;;;;13.51;60.13;99439.53;5054206;28;20545;-65
2022/04/16 01:21:25;;;;;;;9.50;8.70;;;;;;;13.35;60.12;99439.25;5054272;28;20196;-65
2022/04/16 01:23:53;;;;;;;20.33;8.93;;;;;;;13.26;60.76;99436.00;5053436;28;20547;-66
2022/04/16 01:26:22;;;;;;;10.27;9.27;;;;;;;13.22;60.65;99428.63;5035669;28;20204;-66
2022/04/16 01:28:49;;;;;;;9.93;8.40;;;;;;;13.21;61.18;99421.66;5054190;28;20224;-66
2022/04/16 01:31:17;;;;;;;10.00;8.90;;;;;;;13.25;60.72;99428.22;5052814;28;20197;-66
2022/04/16 01:33:43;;;;;;;11.03;9.27;;;;;;;13.18;61.96;99422.91;5035686;28;20244;-66
2022/04/16 01:36:12;;;;;;;10.37;9.33;;;;;;;13.20;61.76;99428.03;5053017;28;20192;-65
2022/04/16 01:38:39;;;;;;;10.13;9.23;;;;;;;13.13;61.57;99417.41;5053986;28;20204;-66
2022/04/16 01:41:07;;;;;;;10.57;9.23;;;;;;;13.14;61.29;99419.03;5053376;28;20193;-66
2022/04/16 01:43:34;;;;;;;13.20;9.43;;;;;;;13.05;61.89;99409.66;5053351;28;20263;-66
2022/04/16 01:46:04;;;;;;;10.20;9.27;;;;;;;12.90;62.53;99406.44;5053300;28;20281;-65
2022/04/16 01:48:31;;;;;;;10.63;9.53;;;;;;;12.82;63.59;99405.88;5052988;28;20227;-66
2022/04/16 01:50:58;;;;;;;10.83;9.10;;;;;;;12.74;63.87;99393.59;5036033;28;20631;-66
2022/04/16 01:53:25;;;;;;;10.90;9.77;;;;;;;12.87;63.82;99409.50;5052886;28;20581;-65
2022/04/16 01:55:52;;;;;;;10.47;9.37;;;;;;;12.85;63.70;99394.75;5052823;28;20616;-65
2022/04/16 01:58:20;;;;;;;10.80;9.70;;;;;;;12.76;63.56;99396.88;5052970;28;20197;-65
2022/04/16 02:00:47;;;;;;;11.00;9.57;;;;;;;12.75;63.29;99397.91;5052851;28;20258;-65
2022/04/16 02:03:15;;;;;;;13.37;9.67;;;;;;;12.70;63.91;99392.38;5052208;28;20195;-65
2022/04/16 02:05:42;;;;;;;13.80;9.63;;;;;;;12.77;63.86;99392.34;5035306;28;20200;-65
2022/04/16 02:08:09;;;;;;;11.13;9.77;;;;;;;12.83;63.82;99394.16;5052649;28;20282;-65
2022/04/16 02:10:35;;;;;;;14.03;9.93;;;;;;;12.83;63.96;99389.63;5052293;28;20715;-65
2022/04/16 02:13:02;;;;;;;18.77;10.53;;;;;;;12.82;64.05;99393.34;5052812;28;20254;-65
2022/04/16 02:15:31;;;;;;;11.50;10.40;;;;;;;12.81;64.43;99389.03;5052408;28;20236;-65
2022/04/16 02:17:58;;;;;;;12.63;9.17;;;;;;;12.86;64.36;99385.75;5052672;28;20200;-66
2022/04/16 02:20:25;;;;;;;24.13;10.70;;;;;;;12.88;64.22;99389.84;5053067;28;20192;-66
2022/04/16 02:22:53;;;;;;;13.37;10.47;;;;;;;12.85;64.76;99398.25;5052696;28;20303;-66
2022/04/16 02:25:24;;;;;;;14.23;9.93;;;;;;;12.86;64.60;99397.22;5052073;28;20204;-66
2022/04/16 02:27:51;;;;;;;13.87;10.57;;;;;;;12.90;64.79;99394.97;5034796;28;20227;-65
2022/04/16 02:30:19;;;;;;;16.67;9.43;;;;;;;12.89;64.63;99383.47;5052648;28;20262;-66
2022/04/16 02:32:52;;;;;;;17.07;10.67;;;;;;;12.93;64.47;99384.69;5052038;28;20250;-66
2022/04/16 02:35:22;;;;;;;13.87;9.67;;;;;;;12.93;64.58;99370.53;5051277;28;20677;-66
2022/04/16 02:37:49;;;;;;;12.83;9.67;;;;;;;12.86;64.58;99359.91;5052645;28;20189;-66
2022/04/16 02:40:17;;;;;;;13.27;10.30;;;;;;;12.84;64.70;99364.63;5051828;28;20286;-65
2022/04/16 02:42:45;;;;;;;11.93;10.37;;;;;;;12.72;64.75;99342.34;5051925;28;20195;-65
2022/04/16 02:48:00;;;;;;;13.70;9.90;;;;;;;12.71;65.51;99362.03;5052494;28;20578;-66
2022/04/16 02:50:28;;;;;;;13.73;10.13;;;;;;;12.58;66.28;99346.09;5052103;28;20612;-66
2022/04/16 02:52:55;;;;;;;12.47;10.03;;;;;;;12.57;66.33;99352.47;5052866;28;20283;-66
2022/04/16 02:55:22;;;;;;;16.17;10.43;;;;;;;12.69;66.08;99363.25;5034575;28;20195;-65
2022/04/16 02:57:50;;;;;;;10.57;9.53;;;;;;;12.65;65.41;99352.22;5051978;28;20647;-65
2022/04/16 03:00:19;;;;;;;13.37;9.90;;;;;;;12.64;65.78;99363.91;5051678;28;20199;-65
2022/04/16 03:02:46;;;;;;;18.23;9.03;;;;;;;12.69;65.51;99366.75;5051835;28;20261;-65
2022/04/16 03:05:15;;;;;;;14.00;8.47;;;;;;;12.65;65.32;99357.56;5051626;28;20242;-65
2022/04/16 03:07:42;;;;;;;8.10;7.30;;;;;;;12.61;64.84;99358.16;5052560;28;20222;-65
2022/04/16 03:10:10;;;;;;;11.23;8.27;;;;;;;12.55;64.71;99356.38;5051612;28;20693;-65
2022/04/16 03:12:45;;;;;;;7.97;7.20;;;;;;;12.51;64.47;99366.66;5052031;28;20200;-65
2022/04/16 03:17:57;;;;;;;9.50;7.37;;;;;;;12.52;64.51;99367.44;5016573;28;20185;-65
2022/04/16 03:20:29;;;;;;;7.43;6.83;;;;;;;12.51;64.44;99363.97;5015908;28;20690;-65
2022/04/16 03:22:56;;;;;;;9.43;7.30;;;;;;;12.50;64.80;99370.31;5015347;28;20233;-66
2022/04/16 03:25:23;;;;;;;8.90;7.13;;;;;;;12.50;64.41;99375.63;5017030;28;20317;-65
2022/04/16 03:27:52;;;;;;;7.40;6.67;;;;;;;12.51;64.34;99374.63;5016034;28;20662;-65
2022/04/16 03:30:19;;;;;;;8.77;7.87;;;;;;;12.54;64.17;99374.19;5047496;28;20634;-65
2022/04/16 03:32:47;;;;;;;7.10;6.43;;;;;;;12.50;64.29;99372.97;5015961;28;20577;-65
2022/04/16 03:35:14;;;;;;;8.10;7.30;;;;;;;12.54;64.28;99381.38;5014493;28;20735;-65
2022/04/16 03:37:42;;;;;;;10.10;7.10;;;;;;;12.59;64.48;99387.72;5016741;28;20189;-65
2022/04/16 03:40:10;;;;;;;11.10;7.07;;;;;;;12.51;64.07;99366.66;5015843;28;20210;-65
2022/04/16 03:42:45;;;;;;;8.03;7.00;;;;;;;12.62;63.74;99384.59;5014589;28;20198;-65
2022/04/16 03:45:18;;;;;;;7.33;6.60;;;;;;;12.64;63.79;99392.41;5015803;28;20189;-65
2022/04/16 03:47:46;;;;;;;11.97;7.20;;;;;;;12.64;63.88;99387.06;5015818;28;20191;-65
2022/04/16 03:50:13;;;;;;;10.20;6.80;;;;;;;12.67;63.83;99376.81;5015708;28;20316;-65
2022/04/16 03:52:41;;;;;;;8.93;8.03;;;;;;;12.72;63.82;99385.00;5015448;28;20201;-65
2022/04/16 04:00:41;;;;;;;10.80;8.20;;;;;;;12.86;62.96;99381.22;5015765;28;20651;-66
2022/04/16 04:03:07;;;;;;;10.63;9.53;;;;;;;13.06;63.07;99397.97;5016044;28;20194;-66
2022/04/16 04:05:37;;;;;;;20.13;12.23;;;;;;;13.28;62.75;99407.25;5015438;28;20230;-65
2022/04/16 04:08:05;;;;;;;21.67;13.23;;;;;;;13.59;61.46;99409.91;5015436;28;20217;-66
2022/04/16 04:10:33;;;;;;;16.73;10.80;;;;;;;13.91;60.45;99410.66;5015273;28;20225;-65
2022/04/16 04:13:00;;;;;;;12.23;9.90;;;;;;;14.25;58.98;99416.31;5014830;28;20735;-66
2022/04/16 04:15:27;;;;;;;21.90;10.00;;;;;;;14.60;58.06;99408.53;5038404;28;20228;-66
2022/04/16 04:17:54;;;;;;;13.93;9.37;;;;;;;14.99;56.90;99413.41;5054926;28;20240;-65
2022/04/16 04:20:21;;;;;;;3.67;3.47;;;;;;;15.53;63.32;99411.38;5054399;28;20674;-66
2022/04/16 04:22:48;;;;;;;4.93;4.30;;;;;;;16.59;60.37;99411.19;5070359;28;20292;-68
2022/04/16 04:25:15;;;;;;;6.40;5.30;;;;;;;17.70;56.00;99417.63;5055026;28;20208;-70
2022/04/16 04:27:43;;;;;;;9.67;7.83;;;;;;;17.96;46.28;99431.25;5054025;28;20197;-65
2022/04/16 04:30:11;;;;;;;18.87;8.33;;;;;;;17.74;46.31;99429.53;5054459;28;20221;-65
2022/04/16 04:32:40;;;;;;;11.87;8.93;;;;;;;17.63;47.29;99438.47;5054664;28;20255;-64
2022/04/16 04:35:08;;;;;;;10.57;7.93;;;;;;;17.69;46.28;99446.41;5055152;28;20197;-64
2022/04/16 04:37:35;;;;;;;9.33;8.23;;;;;;;17.50;46.40;99442.28;5054505;28;20269;-64
2022/04/16 04:40:02;;;;;;;10.77;7.77;;;;;;;17.18;46.84;99448.34;5036666;28;20295;-65
2022/04/16 04:42:30;;;;;;;8.87;8.13;;;;;;;16.90;48.03;99434.94;5054311;28;20242;-64
2022/04/16 04:45:01;;;;;;;13.77;8.57;;;;;;;16.72;48.38;99440.44;5054180;28;20750;-62
2022/04/16 04:47:28;;;;;;;15.93;7.57;;;;;;;16.39;49.04;99442.91;5054024;28;20243;-62
2022/04/16 04:49:55;;;;;;;10.40;7.30;;;;;;;16.28;49.22;99441.03;5053947;28;20677;-62
2022/04/16 04:52:24;;;;;;;10.63;7.73;;;;;;;16.25;48.80;99441.53;5053623;28;20196;-62
2022/04/16 04:54:51;;;;;;;12.20;8.13;;;;;;;16.24;49.17;99442.56;5054066;28;20283;-62
2022/04/16 04:57:18;;;;;;;10.87;7.90;;;;;;;16.23;49.91;99447.13;5052943;28;20200;-65
2022/04/16 04:59:45;;;;;;;8.90;8.10;;;;;;;16.27;48.54;99453.63;5053552;28;20193;-63
2022/04/16 05:02:13;;;;;;;12.07;7.90;;;;;;;16.25;48.91;99452.25;5053727;28;20200;-63
2022/04/16 05:04:39;;;;;;;8.73;7.90;;;;;;;16.16;49.19;99450.97;5053667;28;20678;-63
2022/04/16 05:07:07;;;;;;;9.27;7.70;;;;;;;16.04;49.50;99450.16;5054569;28;20197;-63
2022/04/16 05:09:34;;;;;;;12.27;7.33;;;;;;;16.07;48.97;99439.78;5052893;28;20259;-62
2022/04/16 05:12:01;;;;;;;9.70;7.23;;;;;;;16.23;48.62;99454.31;5053559;28;20246;-63
2022/04/16 05:14:27;;;;;;;8.70;7.93;;;;;;;16.23;49.68;99457.00;5053466;28;20739;-63
2022/04/16 05:16:54;;;;;;;16.53;8.00;;;;;;;16.59;49.30;99454.94;5052405;28;20188;-64
2022/04/16 05:19:22;;;;;;;9.30;7.00;;;;;;;16.79;48.76;99449.19;5051494;28;20254;-65
2022/04/16 05:21:49;;;;;;;8.23;7.40;;;;;;;16.95;47.52;99454.59;5051194;28;20254;-65
2022/04/16 05:24:16;;;;;;;7.90;7.30;;;;;;;17.05;47.42;99448.63;5051478;28;20195;-63
2022/04/16 05:26:42;;;;;;;17.03;7.53;;;;;;;17.15;46.63;99454.22;5051389;28;20193;-63
2022/04/16 05:29:09;;;;;;;8.20;7.40;;;;;;;17.12;46.57;99460.06;5051142;28;20697;-65
2022/04/16 05:31:36;;;;;;;10.37;6.93;;;;;;;17.08;47.28;99459.72;5051736;28;20196;-62
2022/04/16 05:34:22;;;;;;;6.40;6.00;;;;;;;17.09;46.77;99455.97;5054228;28;20197;-63
2022/04/16 05:36:51;;;;;;;7.77;6.10;;;;;;;17.06;47.23;99450.28;5053089;28;20644;-63
2022/04/16 05:39:18;;;;;;;8.07;7.27;;;;;;;17.11;47.39;99443.13;5052635;28;20196;-63
2022/04/16 05:41:45;;;;;;;9.37;6.87;;;;;;;17.15;47.65;99454.22;5052792;28;20254;-63
2022/04/16 05:44:12;;;;;;;10.13;6.67;;;;;;;17.34;46.79;99450.25;5053176;28;20200;-62
2022/04/16 05:46:38;;;;;;;6.97;5.73;;;;;;;17.48;46.35;99446.28;5052864;28;20580;-63
2022/04/16 05:49:05;;;;;;;6.33;5.70;;;;;;;17.55;45.59;99438.84;5053278;28;20275;-62
2022/04/16 05:51:32;;;;;;;9.00;5.80;;;;;;;17.68;45.41;99433.19;5052787;28;20627;-63
2022/04/16 05:54:03;;;;;;;5.83;5.33;;;;;;;17.78;45.50;99430.69;5052760;28;20192;-63
2022/04/16 05:56:30;;;;;;;8.93;5.87;;;;;;;17.99;45.07;99435.31;5053513;28;20274;-63
2022/04/16 05:58:57;;;;;;;6.67;5.97;;;;;;;18.04;45.09;99416.56;5052609;28;20711;-63
2022/04/16 06:01:24;;;;;;;6.87;6.10;;;;;;;18.31;44.74;99433.66;5053153;28;20195;-63
2022/04/16 06:03:51;;;;;;;8.57;6.03;;;;;;;18.47;44.87;99438.22;5039470;28;20198;-62
2022/04/16 06:06:18;;;;;;;19.53;7.37;;;;;;;18.70;43.92;99438.00;5032549;28;20196;-64
2022/04/16 06:08:44;;;;;;;18.07;6.77;;;;;;;18.77;43.61;99444.00;5032520;28;20257;-63
2022/04/16 06:11:16;;;;;;;7.00;6.23;;;;;;;19.23;41.90;99440.78;5039226;28;20192;-63
2022/04/16 06:13:43;;;;;;;12.10;5.57;;;;;;;19.32;41.20;99436.63;5052879;28;20650;-64
2022/04/16 06:16:10;;;;;;;8.67;5.23;;;;;;;19.64;41.17;99434.78;5053732;28;20290;-64
2022/04/16 06:18:37;;;;;;;7.97;4.50;;;;;;;20.02;40.19;99438.06;5052613;28;20644;-64
2022/04/16 06:21:05;;;;;;;7.17;4.37;;;;;;;20.24;39.27;99417.22;5034493;28;20193;-65
2022/04/16 06:23:32;;;;;;;5.07;4.60;;;;;;;20.32;38.24;99391.63;5032553;28;20281;-65
2022/04/16 06:25:59;;;;;;;7.93;4.90;;;;;;;20.36;39.15;99433.22;5032756;28;20288;-65
2022/04/16 06:28:27;;;;;;;5.23;4.70;;;;;;;20.61;39.75;99422.56;5032049;28;20667;-66
2022/04/16 06:30:54;;;;;;;8.87;4.63;;;;;;;21.07;38.60;99413.59;5032070;28;20221;-64
2022/04/16 06:33:21;;;;;;;15.87;5.83;;;;;;;21.51;37.73;99419.38;5014806;28;20213;-65
2022/04/16 06:35:48;;;;;;;24.93;6.83;;;;;;;21.84;37.12;99408.09;5032465;28;20663;-63
2022/04/16 06:38:14;;;;;;;8.00;5.50;;;;;;;22.03;36.63;99412.66;5050643;28;20205;-65
2022/04/16 06:40:41;;;;;;;6.13;5.20;;;;;;;21.73;36.63;99407.28;5052346;28;20192;-64
2022/04/16 06:43:08;;;;;;;7.07;5.67;;;;;;;21.79;37.21;99408.06;5051761;28;20250;-63
2022/04/16 06:45:36;;;;;;;5.87;5.30;;;;;;;21.84;36.98;99403.47;5051731;28;20270;-65
2022/04/16 06:48:03;;;;;;;5.60;4.87;;;;;;;22.01;37.03;99404.00;5052097;28;20654;-65
2022/04/16 06:50:30;;;;;;;15.33;5.77;;;;;;;22.08;36.70;99399.13;5052053;28;20228;-65
2022/04/16 06:52:57;;;;;;;7.67;5.17;;;;;;;21.80;37.24;99391.56;5051935;28;20204;-65
2022/04/16 06:55:24;;;;;;;5.87;5.37;;;;;;;21.77;37.18;99384.03;5051680;28;20620;-64
2022/04/16 06:57:50;;;;;;;12.17;5.20;;;;;;;21.88;37.72;99377.50;5051809;28;20200;-64
2022/04/16 07:00:17;;;;;;;5.40;4.93;;;;;;;21.83;37.13;99380.22;5051905;28;20201;-64
2022/04/16 07:02:45;;;;;;;7.30;5.30;;;;;;;21.72;37.01;99380.50;5051520;28;20242;-65
2022/04/16 07:05:12;;;;;;;15.57;5.87;;;;;;;21.69;37.18;99381.81;5052263;28;20197;-65
2022/04/16 07:07:39;;;;;;;16.73;5.97;;;;;;;21.91;37.10;99379.66;5052634;28;20271;-64
2022/04/16 07:10:07;;;;;;;23.73;7.53;;;;;;;22.13;36.95;99374.75;5051799;28;20228;-64
2022/04/16 07:12:34;;;;;;;15.67;8.30;;;;;;;22.20;36.45;99364.47;5031469;28;20219;-64
2022/04/16 07:15:01;;;;;;;12.53;6.90;;;;;;;22.29;36.17;99368.22;5031970;28;20290;-63
2022/04/16 07:17:28;;;;;;;20.93;7.90;;;;;;;22.32;36.13;99373.09;5032879;28;20198;-63
2022/04/16 07:19:56;;;;;;;30.17;9.67;;;;;;;22.31;36.34;99371.50;5031768;28;20282;-64
2022/04/16 07:22:23;;;;;;;12.53;6.27;;;;;;;22.34;36.40;99364.72;5031868;28;20256;-64
2022/04/16 07:24:51;;;;;;;8.77;6.27;;;;;;;22.49;35.32;99365.50;5031438;28;20197;-64
2022/04/16 07:27:18;;;;;;;8.17;6.07;;;;;;;22.56;35.66;99363.31;5032329;28;20202;-64
2022/04/16 07:29:46;;;;;;;13.50;6.37;;;;;;;22.75;35.64;99366.22;5031838;28;20291;-64
2022/04/16 07:32:12;;;;;;;9.50;6.20;;;;;;;22.83;35.05;99355.59;5031649;28;20233;-64
2022/04/16 07:34:39;;;;;;;6.73;4.80;;;;;;;22.93;35.23;99352.84;5013814;28;20233;-63
2022/04/16 07:37:09;;;;;;;12.23;6.63;;;;;;;23.12;34.97;99353.78;5031806;28;20243;-64
2022/04/16 07:39:35;;;;;;;10.23;6.13;;;;;;;23.24;34.21;99340.75;5031896;28;20194;-64
2022/04/16 07:42:02;;;;;;;6.70;5.50;;;;;;;23.52;34.03;99355.47;5031324;28;20191;-64
2022/04/16 07:44:29;;;;;;;7.63;4.93;;;;;;;23.61;34.01;99341.00;5031692;28;20273;-64
2022/04/16 07:46:56;;;;;;;5.27;4.50;;;;;;;23.76;33.15;99350.91;5031704;28;20194;-64
2022/04/16 07:49:22;;;;;;;5.07;4.50;;;;;;;23.75;33.05;99350.13;5031095;28;20252;-64
2022/04/16 07:51:49;;;;;;;5.17;4.40;;;;;;;23.80;32.85;99352.78;5031698;28;20198;-64
2022/04/16 07:54:18;;;;;;;7.70;4.63;;;;;;;24.03;32.31;99352.06;5031765;28;20282;-64
2022/04/16 07:56:44;;;;;;;13.13;4.93;;;;;;;24.23;31.73;99351.03;5030862;28;20654;-66
2022/04/16 07:59:11;;;;;;;11.83;4.73;;;;;;;24.40;31.74;99349.47;5031027;28;20676;-64
2022/04/16 08:01:38;;;;;;;6.40;4.13;;;;;;;24.46;31.41;99337.44;5033227;28;20200;-64
2022/04/16 08:04:05;;;;;;;6.30;4.30;;;;;;;24.58;31.01;99348.72;5035021;28;20727;-62
2022/04/16 08:06:32;;;;;;;6.77;4.17;;;;;;;24.40;31.26;99352.19;5035776;28;20204;-62
2022/04/16 08:09:01;;;;;;;8.27;3.77;;;;;;;24.26;30.96;99345.03;5034792;28;20204;-62
2022/04/16 08:11:30;;;;;;;5.20;4.20;;;;;;;24.40;31.01;99354.91;5045519;28;20227;-62
2022/04/16 08:13:56;;;;;;;4.00;3.60;;;;;;;24.42;30.68;99350.00;5054529;28;20191;-62
2022/04/16 08:16:23;;;;;;;3.77;3.43;;;;;;;24.46;30.65;99345.59;5055525;28;20232;-62
2022/04/16 08:18:50;;;;;;;5.33;3.63;;;;;;;24.50;30.18;99349.34;5055294;28;20196;-62
2022/04/16 08:21:17;;;;;;;7.20;4.43;;;;;;;24.57;30.57;99341.66;5054406;28;20552;-62
2022/04/16 08:23:55;;;;;;;4.03;3.73;;;;;;;24.67;30.26;99347.00;5054562;28;20195;-65
2022/04/16 08:26:21;;;;;;;10.33;3.97;;;;;;;24.73;30.01;99332.25;5054777;28;20204;-64
2022/04/16 08:28:50;;;;;;;4.20;3.80;;;;;;;24.88;29.16;99326.59;5054232;28;20203;-65
2022/04/16 08:31:17;;;;;;;6.40;3.50;;;;;;;25.20;29.19;99330.50;5054805;28;20278;-64
2022/04/16 08:33:43;;;;;;;4.03;3.03;;;;;;;25.42;29.62;99328.00;5054468;28;20197;-64
2022/04/16 08:36:10;;;;;;;5.33;3.70;;;;;;;25.57;28.58;99327.78;5055167;28;20254;-64
2022/04/16 08:38:37;;;;;;;5.50;3.77;;;;;;;25.65;28.70;99322.47;5054284;28;20269;-63
2022/04/16 08:41:05;;;;;;;9.90;4.57;;;;;;;25.88;28.12;99323.44;5054353;28;20254;-63
2022/04/16 08:43:33;;;;;;;5.47;4.43;;;;;;;26.13;28.10;99320.28;5053950;28;20581;-63
2022/04/16 08:46:01;;;;;;;7.63;4.53;;;;;;;26.35;27.69;99323.91;5053841;28;20196;-63
2022/04/16 08:48:30;;;;;;;6.20;4.07;;;;;;;26.50;27.64;99309.19;5054678;28;20197;-63
2022/04/16 08:50:58;;;;;;;10.33;4.93;;;;;;;26.59;28.16;99310.09;5054022;28;20228;-64
2022/04/16 08:53:24;;;;;;;7.10;4.93;;;;;;;26.62;27.80;99307.56;5054606;28;20192;-64
2022/04/16 08:55:51;;;;;;;6.27;4.67;;;;;;;26.70;27.62;99309.59;5053815;28;20281;-62
2022/04/16 08:58:18;;;;;;;9.43;5.03;;;;;;;26.85;27.89;99294.81;5053525;28;20579;-63
2022/04/16 09:00:45;;;;;;;5.07;4.43;;;;;;;27.21;27.49;99296.47;5053873;28;20260;-62
2022/04/16 09:03:13;;;;;;;7.10;4.50;;;;;;;27.49;27.64;99300.69;5053633;28;20574;-62
2022/04/16 09:05:40;;;;;;;5.87;3.97;;;;;;;27.87;26.60;99301.09;5053524;28;20666;-63
2022/04/16 09:08:07;;;;;;;6.73;4.83;;;;;;;27.94;26.66;99299.53;5053728;28;20223;-63
2022/04/16 09:10:36;;;;;;;7.33;4.63;;;;;;;27.78;26.24;99286.56;5050401;28;20213;-63
2022/04/16 09:13:05;;;;;;;11.27;4.40;;;;;;;27.95;25.87;99286.66;5033552;28;20190;-63
2022/04/16 09:15:34;;;;;;;6.63;4.57;;;;;;;28.11;25.64;99285.13;5033650;28;20572;-63
2022/04/16 09:18:03;;;;;;;9.20;4.80;;;;;;;28.15;25.71;99286.94;5033876;28;20197;-63
2022/04/16 09:20:33;;;;;;;8.37;4.70;;;;;;;28.21;26.51;99276.66;5033450;28;20662;-63
2022/04/16 09:23:00;;;;;;;7.33;3.83;;;;;;;28.14;25.44;99268.13;5033472;28;20197;-63
2022/04/16 09:25:31;;;;;;;5.33;4.50;;;;;;;28.03;26.26;99269.53;5033042;28;20194;-63
2022/04/16 09:27:58;;;;;;;5.83;4.00;;;;;;;28.10;25.57;99258.94;5033192;28;20280;-63
2022/04/16 09:30:27;;;;;;;8.27;4.07;;;;;;;28.09;25.35;99268.28;5032947;28;20706;-63
2022/04/16 09:32:57;;;;;;;9.63;4.67;;;;;;;28.01;25.33;99258.91;5033345;28;20204;-63
2022/04/16 09:35:33;;;;;;;10.57;4.60;;;;;;;28.00;25.81;99253.75;5033365;28;20248;-63
2022/04/16 09:38:01;;;;;;;8.80;4.60;;;;;;;27.99;25.50;99254.88;5033646;28;20189;-63
2022/04/16 09:40:29;;;;;;;5.83;3.80;;;;;;;27.99;26.01;99249.41;5032852;28;20625;-63
2022/04/16 09:42:59;;;;;;;4.87;4.37;;;;;;;27.93;25.47;99251.47;5033200;28;20196;-63
2022/04/16 09:45:26;;;;;;;5.80;3.87;;;;;;;27.98;24.80;99247.81;5033784;28;20190;-63
2022/04/16 09:47:53;;;;;;;11.20;7.23;;;;;;;27.88;25.17;99243.44;5033169;28;20201;-62
2022/04/16 09:50:22;;;;;;;6.87;4.43;;;;;;;27.92;25.07;99246.34;5032759;28;20640;-62
2022/04/16 09:52:53;;;;;;;3.90;3.60;;;;;;;28.20;25.00;99242.25;5033003;28;20248;-62
2022/04/16 09:55:24;;;;;;;8.77;4.30;;;;;;;28.39;24.79;99240.06;5033328;28;20568;-63
2022/04/16 09:57:53;;;;;;;7.53;3.90;;;;;;;28.36;25.06;99232.50;5032659;28;20212;-63
2022/04/16 10:00:21;;;;;;;5.57;4.07;;;;;;;28.39;25.43;99231.88;5032496;28;20251;-63
2022/04/16 10:02:48;;;;;;;7.53;4.17;;;;;;;28.60;24.95;99235.63;5032313;28;20193;-63
2022/04/16 10:05:15;;;;;;;9.53;3.80;;;;;;;28.75;24.37;99238.69;5033248;28;20248;-64
2022/04/16 10:07:44;;;;;;;4.97;3.20;;;;;;;28.73;23.78;99226.47;5032712;28;20193;-63
2022/04/16 10:10:30;;;;;;;5.90;3.20;;;;;;;28.83;24.19;99231.66;5033022;28;20316;-63
2022/04/16 10:13:04;;;;;;;5.90;3.20;;;;;;;28.90;24.28;99221.81;5052347;28;20184;-63
2022/04/16 10:15:52;;;;;;;7.83;3.60;;;;;;;29.17;23.78;99217.97;5051610;28;20726;-63
2022/04/16 10:18:19;;;;;;;6.80;3.30;;;;;;;29.27;23.95;99214.88;5053351;28;20558;-63
2022/04/16 10:20:53;;;;;;;6.57;3.50;;;;;;;29.22;23.37;99220.53;5051598;28;20197;-63
2022/04/16 10:23:31;;;;;;;6.90;3.53;;;;;;;29.37;23.66;99209.09;5051992;28;20200;-64
2022/04/16 10:26:04;;;;;;;5.80;3.53;;;;;;;29.45;23.62;99207.44;5052257;28;20663;-64
2022/04/16 10:28:41;;;;;;;15.43;4.20;;;;;;;29.65;23.50;99210.31;5052138;28;20250;-64
2022/04/16 10:31:20;;;;;;;4.80;2.87;;;;;;;29.87;24.12;99203.78;5051709;28;20578;-65
2022/04/16 10:33:57;;;;;;;9.53;4.47;;;;;;;29.91;22.76;99208.28;5052013;28;20181;-65
2022/04/16 10:36:26;;;;;;;12.50;3.70;;;;;;;29.98;23.20;99202.28;5052119;28;20192;-63
2022/04/16 10:38:53;;;;;;;8.00;3.53;;;;;;;29.98;23.11;99200.34;5051004;28;20197;-64
2022/04/16 10:41:22;;;;;;;4.17;3.50;;;;;;;30.15;22.40;99213.19;5050642;28;20200;-64
2022/04/16 10:43:54;;;;;;;6.30;3.50;;;;;;;30.15;22.02;99203.03;5051271;28;20204;-64
2022/04/16 10:46:21;;;;;;;5.73;4.37;;;;;;;30.24;22.13;99197.47;5045473;28;20204;-64
2022/04/16 10:48:50;;;;;;;7.40;4.20;;;;;;;30.37;22.54;99199.19;5031276;28;20201;-65
2022/04/16 10:51:20;;;;;;;3.50;3.27;;;;;;;30.30;22.50;99193.44;5031179;28;20225;-63
2022/04/16 10:53:47;;;;;;;5.07;3.70;;;;;;;30.25;21.07;99196.38;5029989;28;20247;-67
2022/04/16 10:56:15;;;;;;;6.07;3.17;;;;;;;30.25;20.48;99196.38;5030321;28;20197;-65
2022/04/16 10:58:45;;;;;;;6.77;3.37;;;;;;;30.14;19.65;99190.47;5030341;28;20201;-64
2022/04/16 11:01:14;;;;;;;3.13;2.90;;;;;;;30.15;20.37;99192.06;5030677;28;20193;-64
2022/04/16 11:03:46;;;;;;;3.37;3.17;;;;;;;30.20;19.94;99185.56;5030774;28;20267;-64
2022/04/16 11:06:14;;;;;;;4.60;2.87;;;;;;;30.28;20.27;99180.06;5030703;28;20201;-64
2022/04/16 11:08:45;;;;;;;4.40;3.83;;;;;;;30.45;20.27;99185.41;5031879;28;20201;-64
2022/04/16 11:11:13;;;;;;;7.50;3.43;;;;;;;30.51;21.06;99178.63;5040103;28;20208;-64
2022/04/16 11:13:41;;;;;;;8.63;3.17;;;;;;;30.46;20.62;99178.00;5052119;28;20192;-65
2022/04/16 11:16:10;;;;;;;3.83;3.63;;;;;;;30.24;20.87;99184.59;5051992;28;20282;-65
2022/04/16 11:18:43;;;;;;;4.47;3.80;;;;;;;30.17;21.29;99176.09;5051460;28;20661;-65
2022/04/16 11:21:12;;;;;;;3.80;3.00;;;;;;;30.14;20.95;99174.03;5052146;28;20189;-64
2022/04/16 11:23:43;;;;;;;3.33;3.10;;;;;;;29.86;19.93;99178.34;5052262;28;20219;-64
2022/04/16 11:34:36;;;;;;;3.43;3.13;;;;;;;29.47;21.51;99156.72;5051815;28;20618;-64
2022/04/16 11:37:03;;;;;;;4.67;3.37;;;;;;;29.30;21.12;99156.78;5053469;28;20201;-64
2022/04/16 11:39:31;;;;;;;4.83;3.33;;;;;;;29.26;21.70;99158.56;5055803;28;20212;-66
2022/04/16 11:42:00;;;;;;;3.53;3.33;;;;;;;29.15;20.88;99160.00;5055318;28;20208;-66
2022/04/16 11:44:45;;;;;;;3.07;2.77;;;;;;;28.93;20.72;99150.06;5055137;28;20614;-64
2022/04/16 11:47:15;;;;;;;3.30;3.10;;;;;;;28.96;20.81;99148.63;5055422;28;20188;-65
2022/04/16 11:49:44;;;;;;;3.30;2.73;;;;;;;29.08;20.95;99143.31;5055285;28;20262;-65
2022/04/16 11:52:11;;;;;;;2.63;2.47;;;;;;;29.11;20.90;99140.72;5037049;28;20705;-65